sensor_id;sensor_type;location;lat;lon;timestamp;noise_LAeq;noise_LA_min;noise_LA_max;noise_LA01;noise_LA95
74531;Laerm;63010;55.668;37.878;2023-01-15T00:01:04;56.84;48.42;66.03;;
74531;Laerm;63010;55.668;37.878;2023-01-15T00:03:30;58.55;51.43;66.68;;
74531;Laerm;63010;55.668;37.878;2023-01-15T00:06:00;57.83;50.85;66.55;;
74531;Laerm;63010;55.668;37.878;2023-01-15T00:08:25;58.00;49.88;64.03;;
74531;Laerm;63010;55.668;37.878;2023-01-15T00:10:51;61.38;54.14;78.60;;
74531;Laerm;63010;55.668;37.878;2023-01-15T00:13:16;57.08;48.78;67.46;;
74531;Laerm;63010;55.668;37.878;2023-01-15T00:15:42;55.92;48.08;66.85;;
74531;Laerm;63010;55.668;37.878;2023-01-15T00:18:09;57.98;49.93;70.81;;
74531;Laerm;63010;55.668;37.878;2023-01-15T00:20:36;57.15;50.14;66.00;;
74531;Laerm;63010;55.668;37.878;2023-01-15T00:23:01;56.82;50.47;65.22;;
74531;Laerm;63010;55.668;37.878;2023-01-15T00:25:27;58.02;49.51;67.01;;
74531;Laerm;63010;55.668;37.878;2023-01-15T00:28:14;58.31;49.40;65.64;;
74531;Laerm;63010;55.668;37.878;2023-01-15T00:30:42;59.17;50.90;72.20;;
74531;Laerm;63010;55.668;37.878;2023-01-15T00:33:08;59.04;49.41;75.38;;
74531;Laerm;63010;55.668;37.878;2023-01-15T00:35:34;57.44;50.77;66.63;;
74531;Laerm;63010;55.668;37.878;2023-01-15T00:37:59;58.25;49.48;75.28;;
74531;Laerm;63010;55.668;37.878;2023-01-15T00:40:25;58.08;50.25;65.45;;
74531;Laerm;63010;55.668;37.878;2023-01-15T00:42:51;59.88;51.46;69.63;;
74531;Laerm;63010;55.668;37.878;2023-01-15T00:45:16;57.04;50.81;67.95;;
74531;Laerm;63010;55.668;37.878;2023-01-15T00:47:43;57.32;49.81;65.38;;
74531;Laerm;63010;55.668;37.878;2023-01-15T00:50:12;58.09;50.56;66.58;;
74531;Laerm;63010;55.668;37.878;2023-01-15T00:52:39;56.27;49.84;62.53;;
74531;Laerm;63010;55.668;37.878;2023-01-15T00:55:05;57.31;51.08;64.35;;
74531;Laerm;63010;55.668;37.878;2023-01-15T00:57:31;57.62;50.19;65.98;;
74531;Laerm;63010;55.668;37.878;2023-01-15T00:59:57;58.03;52.40;65.12;;
74531;Laerm;63010;55.668;37.878;2023-01-15T01:02:23;57.73;49.36;65.34;;
74531;Laerm;63010;55.668;37.878;2023-01-15T01:04:48;57.25;49.25;67.91;;
74531;Laerm;63010;55.668;37.878;2023-01-15T01:07:14;58.55;50.65;68.44;;
74531;Laerm;63010;55.668;37.878;2023-01-15T01:09:40;57.41;48.87;67.20;;
74531;Laerm;63010;55.668;37.878;2023-01-15T01:12:06;56.74;51.14;63.59;;
74531;Laerm;63010;55.668;37.878;2023-01-15T01:14:32;57.01;49.36;63.50;;
74531;Laerm;63010;55.668;37.878;2023-01-15T01:16:57;57.29;49.29;65.78;;
74531;Laerm;63010;55.668;37.878;2023-01-15T01:19:24;55.61;49.56;63.47;;
74531;Laerm;63010;55.668;37.878;2023-01-15T01:21:50;58.20;50.74;66.37;;
74531;Laerm;63010;55.668;37.878;2023-01-15T01:24:21;57.24;51.07;67.00;;
74531;Laerm;63010;55.668;37.878;2023-01-15T01:26:48;59.12;50.64;76.17;;
74531;Laerm;63010;55.668;37.878;2023-01-15T01:29:16;57.83;50.18;67.89;;
74531;Laerm;63010;55.668;37.878;2023-01-15T01:31:42;56.48;48.77;64.94;;
74531;Laerm;63010;55.668;37.878;2023-01-15T01:34:09;58.63;51.86;66.16;;
74531;Laerm;63010;55.668;37.878;2023-01-15T01:36:36;58.55;51.24;68.16;;
74531;Laerm;63010;55.668;37.878;2023-01-15T01:39:04;56.56;48.65;66.22;;
74531;Laerm;63010;55.668;37.878;2023-01-15T01:41:30;56.02;49.42;67.26;;
74531;Laerm;63010;55.668;37.878;2023-01-15T01:44:02;57.03;50.75;66.28;;
74531;Laerm;63010;55.668;37.878;2023-01-15T01:46:30;56.80;50.17;63.96;;
74531;Laerm;63010;55.668;37.878;2023-01-15T01:49:00;57.83;48.38;66.40;;
74531;Laerm;63010;55.668;37.878;2023-01-15T01:51:32;59.35;52.46;68.31;;
74531;Laerm;63010;55.668;37.878;2023-01-15T01:54:00;56.42;49.97;63.25;;
74531;Laerm;63010;55.668;37.878;2023-01-15T01:56:26;57.45;50.36;69.02;;
74531;Laerm;63010;55.668;37.878;2023-01-15T01:58:54;58.32;51.34;68.35;;
74531;Laerm;63010;55.668;37.878;2023-01-15T02:01:21;58.26;48.54;70.96;;
74531;Laerm;63010;55.668;37.878;2023-01-15T02:03:48;59.05;50.01;70.39;;
74531;Laerm;63010;55.668;37.878;2023-01-15T02:06:14;57.37;49.62;63.45;;
74531;Laerm;63010;55.668;37.878;2023-01-15T02:08:40;58.14;51.93;65.90;;
74531;Laerm;63010;55.668;37.878;2023-01-15T02:11:13;59.81;53.23;71.82;;
74531;Laerm;63010;55.668;37.878;2023-01-15T02:13:40;57.61;50.14;67.08;;
74531;Laerm;63010;55.668;37.878;2023-01-15T02:16:20;56.87;50.13;62.97;;
74531;Laerm;63010;55.668;37.878;2023-01-15T02:27:14;58.93;51.61;67.52;;
74531;Laerm;63010;55.668;37.878;2023-01-15T02:29:55;59.82;52.86;68.45;;
74531;Laerm;63010;55.668;37.878;2023-01-15T02:32:32;59.67;51.82;67.41;;
74531;Laerm;63010;55.668;37.878;2023-01-15T02:35:16;59.54;51.07;69.13;;
74531;Laerm;63010;55.668;37.878;2023-01-15T02:37:47;58.47;51.77;65.27;;
74531;Laerm;63010;55.668;37.878;2023-01-15T02:40:13;58.13;50.82;66.66;;
74531;Laerm;63010;55.668;37.878;2023-01-15T02:42:40;57.87;51.47;63.57;;
74531;Laerm;63010;55.668;37.878;2023-01-15T02:45:10;59.10;49.20;66.37;;
74531;Laerm;63010;55.668;37.878;2023-01-15T02:47:39;58.58;50.95;65.01;;
74531;Laerm;63010;55.668;37.878;2023-01-15T02:50:15;58.52;50.94;64.62;;
74531;Laerm;63010;55.668;37.878;2023-01-15T02:52:44;58.39;51.38;66.19;;
74531;Laerm;63010;55.668;37.878;2023-01-15T02:55:39;58.42;52.25;65.39;;
74531;Laerm;63010;55.668;37.878;2023-01-15T02:58:10;62.18;51.58;72.04;;
74531;Laerm;63010;55.668;37.878;2023-01-15T03:00:39;59.08;51.59;67.35;;
74531;Laerm;63010;55.668;37.878;2023-01-15T03:03:13;59.79;51.40;70.05;;
74531;Laerm;63010;55.668;37.878;2023-01-15T03:05:47;59.89;53.17;74.57;;
74531;Laerm;63010;55.668;37.878;2023-01-15T03:08:17;59.36;52.71;67.72;;
74531;Laerm;63010;55.668;37.878;2023-01-15T03:10:48;58.39;52.84;64.72;;
74531;Laerm;63010;55.668;37.878;2023-01-15T03:13:53;59.91;53.25;68.94;;
74531;Laerm;63010;55.668;37.878;2023-01-15T03:24:05;59.78;52.32;65.24;;
74531;Laerm;63010;55.668;37.878;2023-01-15T03:26:32;59.30;52.59;67.66;;
74531;Laerm;63010;55.668;37.878;2023-01-15T03:28:59;59.35;54.02;64.23;;
74531;Laerm;63010;55.668;37.878;2023-01-15T03:31:25;60.30;53.79;67.02;;
74531;Laerm;63010;55.668;37.878;2023-01-15T03:33:50;59.68;53.91;65.54;;
74531;Laerm;63010;55.668;37.878;2023-01-15T03:36:16;59.74;52.96;65.74;;
74531;Laerm;63010;55.668;37.878;2023-01-15T03:38:41;59.60;51.83;67.11;;
74531;Laerm;63010;55.668;37.878;2023-01-15T03:47:01;60.34;53.66;65.14;;
74531;Laerm;63010;55.668;37.878;2023-01-15T03:49:44;61.55;54.82;69.07;;
74531;Laerm;63010;55.668;37.878;2023-01-15T03:57:59;60.52;53.82;66.59;;
74531;Laerm;63010;55.668;37.878;2023-01-15T04:00:37;61.18;54.57;68.89;;
74531;Laerm;63010;55.668;37.878;2023-01-15T04:03:05;59.31;53.35;66.58;;
74531;Laerm;63010;55.668;37.878;2023-01-15T04:05:33;59.83;54.58;64.99;;
74531;Laerm;63010;55.668;37.878;2023-01-15T04:08:00;60.59;54.67;72.81;;
74531;Laerm;63010;55.668;37.878;2023-01-15T04:10:26;60.83;55.87;66.65;;
74531;Laerm;63010;55.668;37.878;2023-01-15T04:12:52;59.92;54.81;72.33;;
74531;Laerm;63010;55.668;37.878;2023-01-15T04:15:18;61.41;55.76;67.59;;
74531;Laerm;63010;55.668;37.878;2023-01-15T04:17:44;61.30;54.24;69.48;;
74531;Laerm;63010;55.668;37.878;2023-01-15T04:20:09;60.24;55.47;64.52;;
74531;Laerm;63010;55.668;37.878;2023-01-15T04:22:35;60.95;55.74;67.62;;
74531;Laerm;63010;55.668;37.878;2023-01-15T04:25:05;59.51;53.81;69.58;;
74531;Laerm;63010;55.668;37.878;2023-01-15T04:27:31;59.54;55.47;64.95;;
74531;Laerm;63010;55.668;37.878;2023-01-15T04:29:56;60.21;55.59;64.93;;
74531;Laerm;63010;55.668;37.878;2023-01-15T04:32:22;61.40;55.30;67.84;;
74531;Laerm;63010;55.668;37.878;2023-01-15T04:34:48;60.78;53.77;66.48;;
74531;Laerm;63010;55.668;37.878;2023-01-15T04:37:15;60.84;55.09;66.84;;
74531;Laerm;63010;55.668;37.878;2023-01-15T04:39:41;63.05;57.11;69.54;;
74531;Laerm;63010;55.668;37.878;2023-01-15T04:42:16;60.94;54.67;67.44;;
74531;Laerm;63010;55.668;37.878;2023-01-15T04:45:00;60.97;55.04;66.14;;
74531;Laerm;63010;55.668;37.878;2023-01-15T04:47:29;60.61;55.49;68.86;;
74531;Laerm;63010;55.668;37.878;2023-01-15T04:49:55;60.93;54.80;66.65;;
74531;Laerm;63010;55.668;37.878;2023-01-15T04:52:20;61.41;56.51;67.06;;
74531;Laerm;63010;55.668;37.878;2023-01-15T04:54:46;60.46;54.64;69.25;;
74531;Laerm;63010;55.668;37.878;2023-01-15T04:57:11;60.13;55.46;65.24;;
74531;Laerm;63010;55.668;37.878;2023-01-15T04:59:37;60.07;55.21;64.39;;
74531;Laerm;63010;55.668;37.878;2023-01-15T05:02:03;60.79;55.52;64.62;;
74531;Laerm;63010;55.668;37.878;2023-01-15T05:04:28;61.25;54.50;75.81;;
74531;Laerm;63010;55.668;37.878;2023-01-15T05:06:54;60.91;55.35;66.76;;
74531;Laerm;63010;55.668;37.878;2023-01-15T05:09:20;60.13;54.71;69.28;;
74531;Laerm;63010;55.668;37.878;2023-01-15T05:11:45;59.88;54.97;64.84;;
74531;Laerm;63010;55.668;37.878;2023-01-15T05:14:11;61.06;56.18;69.10;;
74531;Laerm;63010;55.668;37.878;2023-01-15T05:16:36;61.56;55.75;68.14;;
74531;Laerm;63010;55.668;37.878;2023-01-15T05:19:03;61.30;56.70;67.76;;
74531;Laerm;63010;55.668;37.878;2023-01-15T05:21:33;61.10;55.10;67.37;;
74531;Laerm;63010;55.668;37.878;2023-01-15T05:24:01;61.81;54.94;72.50;;
74531;Laerm;63010;55.668;37.878;2023-01-15T05:26:29;60.57;55.70;65.99;;
74531;Laerm;63010;55.668;37.878;2023-01-15T05:28:56;60.42;54.81;65.48;;
74531;Laerm;63010;55.668;37.878;2023-01-15T05:31:23;60.70;56.32;66.23;;
74531;Laerm;63010;55.668;37.878;2023-01-15T05:33:50;61.16;56.95;66.16;;
74531;Laerm;63010;55.668;37.878;2023-01-15T05:36:17;60.76;56.47;66.23;;
74531;Laerm;63010;55.668;37.878;2023-01-15T05:38:42;61.55;56.71;67.09;;
74531;Laerm;63010;55.668;37.878;2023-01-15T05:41:15;61.19;56.69;68.49;;
74531;Laerm;63010;55.668;37.878;2023-01-15T05:44:00;61.40;55.29;67.63;;
74531;Laerm;63010;55.668;37.878;2023-01-15T05:46:27;60.57;55.73;67.84;;
74531;Laerm;63010;55.668;37.878;2023-01-15T05:48:53;61.03;55.93;66.99;;
74531;Laerm;63010;55.668;37.878;2023-01-15T05:51:18;61.60;55.17;66.96;;
74531;Laerm;63010;55.668;37.878;2023-01-15T05:53:44;62.26;55.12;70.62;;
74531;Laerm;63010;55.668;37.878;2023-01-15T05:56:10;60.93;56.68;65.48;;
74531;Laerm;63010;55.668;37.878;2023-01-15T05:58:36;61.16;55.24;70.42;;
74531;Laerm;63010;55.668;37.878;2023-01-15T06:01:08;61.75;56.16;67.48;;
74531;Laerm;63010;55.668;37.878;2023-01-15T06:03:34;61.86;57.45;66.75;;
74531;Laerm;63010;55.668;37.878;2023-01-15T06:06:00;61.14;56.27;65.63;;
74531;Laerm;63010;55.668;37.878;2023-01-15T06:08:26;61.88;56.49;81.04;;
74531;Laerm;63010;55.668;37.878;2023-01-15T06:10:51;61.14;55.79;65.73;;
74531;Laerm;63010;55.668;37.878;2023-01-15T06:13:17;61.92;57.41;69.95;;
74531;Laerm;63010;55.668;37.878;2023-01-15T06:15:43;61.83;56.71;71.87;;
74531;Laerm;63010;55.668;37.878;2023-01-15T06:18:09;62.07;56.77;69.96;;
74531;Laerm;63010;55.668;37.878;2023-01-15T06:20:36;62.68;58.66;77.01;;
74531;Laerm;63010;55.668;37.878;2023-01-15T06:23:01;61.99;57.43;66.38;;
74531;Laerm;63010;55.668;37.878;2023-01-15T06:25:27;62.03;57.26;69.10;;
74531;Laerm;63010;55.668;37.878;2023-01-15T06:27:52;62.75;58.18;67.69;;
74531;Laerm;63010;55.668;37.878;2023-01-15T06:30:18;63.44;58.19;71.43;;
74531;Laerm;63010;55.668;37.878;2023-01-15T06:32:44;62.25;58.40;68.40;;
74531;Laerm;63010;55.668;37.878;2023-01-15T06:35:10;62.40;57.27;68.52;;
74531;Laerm;63010;55.668;37.878;2023-01-15T06:37:37;61.64;56.94;69.33;;
74531;Laerm;63010;55.668;37.878;2023-01-15T06:40:03;61.38;57.10;66.46;;
74531;Laerm;63010;55.668;37.878;2023-01-15T06:42:29;61.76;57.36;70.66;;
74531;Laerm;63010;55.668;37.878;2023-01-15T06:45:13;61.61;57.55;70.89;;
74531;Laerm;63010;55.668;37.878;2023-01-15T06:47:58;62.33;57.78;67.89;;
74531;Laerm;63010;55.668;37.878;2023-01-15T06:50:24;62.65;58.28;69.33;;
74531;Laerm;63010;55.668;37.878;2023-01-15T06:52:50;61.91;57.29;68.11;;
74531;Laerm;63010;55.668;37.878;2023-01-15T06:55:16;62.76;57.65;69.36;;
74531;Laerm;63010;55.668;37.878;2023-01-15T06:57:43;62.60;57.31;67.82;;
74531;Laerm;63010;55.668;37.878;2023-01-15T07:00:10;63.75;58.81;70.80;;
74531;Laerm;63010;55.668;37.878;2023-01-15T07:02:36;62.80;58.19;68.82;;
74531;Laerm;63010;55.668;37.878;2023-01-15T07:05:03;63.08;57.86;70.85;;
74531;Laerm;63010;55.668;37.878;2023-01-15T07:07:29;63.78;58.45;73.60;;
74531;Laerm;63010;55.668;37.878;2023-01-15T07:09:55;63.11;58.73;67.17;;
74531;Laerm;63010;55.668;37.878;2023-01-15T07:12:21;63.34;57.74;71.41;;
74531;Laerm;63010;55.668;37.878;2023-01-15T07:14:47;62.83;57.56;68.09;;
74531;Laerm;63010;55.668;37.878;2023-01-15T07:17:13;62.55;58.33;68.09;;
74531;Laerm;63010;55.668;37.878;2023-01-15T07:19:39;62.70;58.07;71.48;;
74531;Laerm;63010;55.668;37.878;2023-01-15T07:22:06;61.99;57.80;66.32;;
74531;Laerm;63010;55.668;37.878;2023-01-15T07:24:32;63.00;58.83;68.36;;
74531;Laerm;63010;55.668;37.878;2023-01-15T07:26:58;63.43;59.13;69.46;;
74531;Laerm;63010;55.668;37.878;2023-01-15T07:29:23;62.97;56.61;69.09;;
74531;Laerm;63010;55.668;37.878;2023-01-15T07:31:49;63.02;58.75;67.70;;
74531;Laerm;63010;55.668;37.878;2023-01-15T07:34:15;62.72;58.04;69.67;;
74531;Laerm;63010;55.668;37.878;2023-01-15T07:36:41;64.42;59.24;75.49;;
74531;Laerm;63010;55.668;37.878;2023-01-15T07:39:09;64.02;57.54;79.10;;
74531;Laerm;63010;55.668;37.878;2023-01-15T07:41:35;63.77;59.30;71.07;;
74531;Laerm;63010;55.668;37.878;2023-01-15T07:44:19;63.91;59.56;70.05;;
74531;Laerm;63010;55.668;37.878;2023-01-15T07:47:13;62.75;58.45;67.20;;
74531;Laerm;63010;55.668;37.878;2023-01-15T07:49:58;62.57;58.45;67.20;;
74531;Laerm;63010;55.668;37.878;2023-01-15T07:52:24;63.15;58.38;67.66;;
74531;Laerm;63010;55.668;37.878;2023-01-15T07:54:50;63.34;58.70;69.70;;
74531;Laerm;63010;55.668;37.878;2023-01-15T07:57:18;62.63;58.48;68.34;;
74531;Laerm;63010;55.668;37.878;2023-01-15T07:59:44;63.24;58.44;70.24;;
74531;Laerm;63010;55.668;37.878;2023-01-15T08:02:09;63.34;59.06;69.90;;
74531;Laerm;63010;55.668;37.878;2023-01-15T08:04:36;62.07;57.48;65.92;;
74531;Laerm;63010;55.668;37.878;2023-01-15T08:07:03;62.81;58.08;66.92;;
74531;Laerm;63010;55.668;37.878;2023-01-15T08:09:28;63.73;58.75;71.80;;
74531;Laerm;63010;55.668;37.878;2023-01-15T08:11:55;63.14;58.64;71.40;;
74531;Laerm;63010;55.668;37.878;2023-01-15T08:14:39;62.90;58.71;68.68;;
74531;Laerm;63010;55.668;37.878;2023-01-15T08:17:23;63.57;59.67;68.28;;
74531;Laerm;63010;55.668;37.878;2023-01-15T08:19:49;63.25;58.75;67.50;;
74531;Laerm;63010;55.668;37.878;2023-01-15T08:22:14;64.14;58.77;72.79;;
74531;Laerm;63010;55.668;37.878;2023-01-15T08:24:40;63.77;59.81;72.45;;
74531;Laerm;63010;55.668;37.878;2023-01-15T08:27:06;63.37;59.59;70.02;;
74531;Laerm;63010;55.668;37.878;2023-01-15T08:29:31;63.57;59.55;69.24;;
74531;Laerm;63010;55.668;37.878;2023-01-15T08:31:57;63.64;58.48;71.30;;
74531;Laerm;63010;55.668;37.878;2023-01-15T08:34:23;62.55;58.94;66.70;;
74531;Laerm;63010;55.668;37.878;2023-01-15T08:36:48;62.64;57.91;69.51;;
74531;Laerm;63010;55.668;37.878;2023-01-15T08:39:17;63.26;58.82;74.16;;
74531;Laerm;63010;55.668;37.878;2023-01-15T08:41:42;64.05;60.17;71.50;;
74531;Laerm;63010;55.668;37.878;2023-01-15T08:44:09;63.08;58.25;71.36;;
74531;Laerm;63010;55.668;37.878;2023-01-15T08:46:35;63.40;58.34;69.42;;
74531;Laerm;63010;55.668;37.878;2023-01-15T08:49:00;62.97;57.99;68.31;;
74531;Laerm;63010;55.668;37.878;2023-01-15T08:51:26;63.79;59.64;71.00;;
74531;Laerm;63010;55.668;37.878;2023-01-15T08:53:51;63.21;58.74;69.80;;
74531;Laerm;63010;55.668;37.878;2023-01-15T08:56:18;63.33;58.87;69.42;;
74531;Laerm;63010;55.668;37.878;2023-01-15T08:58:45;63.95;58.74;69.39;;
74531;Laerm;63010;55.668;37.878;2023-01-15T09:01:11;63.46;60.11;68.70;;
74531;Laerm;63010;55.668;37.878;2023-01-15T09:03:40;63.39;58.77;70.01;;
74531;Laerm;63010;55.668;37.878;2023-01-15T09:06:06;63.66;59.17;69.79;;
74531;Laerm;63010;55.668;37.878;2023-01-15T09:08:33;63.23;58.93;66.58;;
74531;Laerm;63010;55.668;37.878;2023-01-15T09:11:03;62.38;58.12;66.34;;
74531;Laerm;63010;55.668;37.878;2023-01-15T09:13:30;62.04;57.83;66.59;;
74531;Laerm;63010;55.668;37.878;2023-01-15T09:16:00;63.52;59.83;71.79;;
74531;Laerm;63010;55.668;37.878;2023-01-15T09:18:26;62.86;58.01;67.69;;
74531;Laerm;63010;55.668;37.878;2023-01-15T09:20:52;62.95;58.96;67.61;;
74531;Laerm;63010;55.668;37.878;2023-01-15T09:23:17;62.65;59.01;66.61;;
74531;Laerm;63010;55.668;37.878;2023-01-15T09:25:57;63.68;58.09;69.62;;
74531;Laerm;63010;55.668;37.878;2023-01-15T09:28:24;63.50;59.39;67.77;;
74531;Laerm;63010;55.668;37.878;2023-01-15T09:30:50;63.31;58.26;68.12;;
74531;Laerm;63010;55.668;37.878;2023-01-15T09:33:16;62.96;58.10;70.17;;
74531;Laerm;63010;55.668;37.878;2023-01-15T09:35:42;63.68;59.00;73.46;;
74531;Laerm;63010;55.668;37.878;2023-01-15T09:38:14;62.72;58.88;66.13;;
74531;Laerm;63010;55.668;37.878;2023-01-15T09:40:54;62.35;58.66;69.88;;
74531;Laerm;63010;55.668;37.878;2023-01-15T09:43:23;63.11;59.01;71.37;;
74531;Laerm;63010;55.668;37.878;2023-01-15T09:46:16;62.75;58.29;66.94;;
74531;Laerm;63010;55.668;37.878;2023-01-15T09:52:19;63.23;58.42;72.07;;
74531;Laerm;63010;55.668;37.878;2023-01-15T09:54:51;63.03;58.13;72.12;;
74531;Laerm;63010;55.668;37.878;2023-01-15T09:57:19;62.68;58.55;67.26;;
74531;Laerm;63010;55.668;37.878;2023-01-15T09:59:48;63.41;59.42;79.57;;
74531;Laerm;63010;55.668;37.878;2023-01-15T10:04:49;63.24;59.10;66.92;;
74531;Laerm;63010;55.668;37.878;2023-01-15T10:09:58;63.45;59.24;67.65;;
74531;Laerm;63010;55.668;37.878;2023-01-15T10:12:29;63.81;59.85;70.89;;
74531;Laerm;63010;55.668;37.878;2023-01-15T10:17:46;63.37;59.10;68.35;;
74531;Laerm;63010;55.668;37.878;2023-01-15T10:20:41;62.74;58.96;68.94;;
74531;Laerm;63010;55.668;37.878;2023-01-15T10:26:32;63.55;59.13;72.42;;
74531;Laerm;63010;55.668;37.878;2023-01-15T10:34:54;61.80;58.83;67.61;;
74531;Laerm;63010;55.668;37.878;2023-01-15T10:45:39;61.39;58.21;66.40;;
74531;Laerm;63010;55.668;37.878;2023-01-15T10:51:05;62.16;57.40;66.15;;
74531;Laerm;63010;55.668;37.878;2023-01-15T10:54:04;62.82;58.63;67.58;;
74531;Laerm;63010;55.668;37.878;2023-01-15T10:59:23;63.31;59.69;69.96;;
74531;Laerm;63010;55.668;37.878;2023-01-15T11:01:53;63.19;59.26;72.24;;
74531;Laerm;63010;55.668;37.878;2023-01-15T11:04:20;63.33;58.12;68.25;;
74531;Laerm;63010;55.668;37.878;2023-01-15T11:06:45;63.41;59.55;73.33;;
74531;Laerm;63010;55.668;37.878;2023-01-15T11:09:19;63.55;59.54;69.78;;
74531;Laerm;63010;55.668;37.878;2023-01-15T11:11:51;62.53;59.19;66.65;;
74531;Laerm;63010;55.668;37.878;2023-01-15T11:17:17;63.80;58.77;70.89;;
74531;Laerm;63010;55.668;37.878;2023-01-15T11:20:15;63.87;59.48;69.80;;
74531;Laerm;63010;55.668;37.878;2023-01-15T11:22:46;63.93;59.62;78.93;;
74531;Laerm;63010;55.668;37.878;2023-01-15T11:25:12;63.99;60.14;76.58;;
74531;Laerm;63010;55.668;37.878;2023-01-15T11:27:38;63.07;59.50;74.37;;
74531;Laerm;63010;55.668;37.878;2023-01-15T11:30:06;66.20;60.02;84.31;;
74531;Laerm;63010;55.668;37.878;2023-01-15T11:32:34;63.08;58.29;73.33;;
74531;Laerm;63010;55.668;37.878;2023-01-15T11:35:18;63.29;59.40;73.32;;
74531;Laerm;63010;55.668;37.878;2023-01-15T11:37:44;63.75;59.82;74.01;;
74531;Laerm;63010;55.668;37.878;2023-01-15T11:40:19;63.22;59.02;70.81;;
74531;Laerm;63010;55.668;37.878;2023-01-15T11:42:49;64.01;58.87;71.59;;
74531;Laerm;63010;55.668;37.878;2023-01-15T11:45:44;63.71;58.87;77.84;;
74531;Laerm;63010;55.668;37.878;2023-01-15T11:48:28;63.20;58.88;68.85;;
74531;Laerm;63010;55.668;37.878;2023-01-15T11:51:14;63.85;60.11;68.67;;
74531;Laerm;63010;55.668;37.878;2023-01-15T11:53:44;63.92;59.71;72.30;;
74531;Laerm;63010;55.668;37.878;2023-01-15T11:56:14;63.97;59.68;69.14;;
74531;Laerm;63010;55.668;37.878;2023-01-15T11:59:14;63.59;59.87;70.09;;
74531;Laerm;63010;55.668;37.878;2023-01-15T12:01:57;63.00;58.93;69.26;;
74531;Laerm;63010;55.668;37.878;2023-01-15T12:04:34;64.30;59.34;76.03;;
74531;Laerm;63010;55.668;37.878;2023-01-15T12:07:03;64.10;59.86;69.85;;
74531;Laerm;63010;55.668;37.878;2023-01-15T12:09:48;62.89;59.59;73.27;;
74531;Laerm;63010;55.668;37.878;2023-01-15T12:15:06;63.02;58.44;70.26;;
74531;Laerm;63010;55.668;37.878;2023-01-15T12:25:12;62.92;59.01;67.44;;
74531;Laerm;63010;55.668;37.878;2023-01-15T12:27:53;63.36;58.96;67.66;;
74531;Laerm;63010;55.668;37.878;2023-01-15T12:35:40;63.63;58.14;71.65;;
74531;Laerm;63010;55.668;37.878;2023-01-15T12:38:10;63.60;59.64;67.63;;
74531;Laerm;63010;55.668;37.878;2023-01-15T12:40:47;63.21;58.98;72.27;;
74531;Laerm;63010;55.668;37.878;2023-01-15T12:43:25;62.87;58.61;66.82;;
74531;Laerm;63010;55.668;37.878;2023-01-15T12:46:14;63.84;59.73;72.83;;
74531;Laerm;63010;55.668;37.878;2023-01-15T12:48:48;63.09;58.84;70.20;;
74531;Laerm;63010;55.668;37.878;2023-01-15T12:51:50;64.07;60.13;68.99;;
74531;Laerm;63010;55.668;37.878;2023-01-15T12:54:24;63.73;59.84;68.60;;
74531;Laerm;63010;55.668;37.878;2023-01-15T12:57:14;63.20;58.99;70.84;;
74531;Laerm;63010;55.668;37.878;2023-01-15T12:59:47;63.22;59.46;69.82;;
74531;Laerm;63010;55.668;37.878;2023-01-15T13:05:17;63.40;59.76;68.79;;
74531;Laerm;63010;55.668;37.878;2023-01-15T13:08:00;63.66;59.05;70.88;;
74531;Laerm;63010;55.668;37.878;2023-01-15T13:10:29;62.92;59.65;67.84;;
74531;Laerm;63010;55.668;37.878;2023-01-15T13:13:12;63.29;59.05;73.92;;
74531;Laerm;63010;55.668;37.878;2023-01-15T13:15:44;62.67;58.86;68.77;;
74531;Laerm;63010;55.668;37.878;2023-01-15T13:18:22;62.77;58.09;68.40;;
74531;Laerm;63010;55.668;37.878;2023-01-15T13:20:51;63.17;59.06;69.04;;
74531;Laerm;63010;55.668;37.878;2023-01-15T13:29:18;62.62;58.69;72.84;;
74531;Laerm;63010;55.668;37.878;2023-01-15T13:32:02;62.40;58.39;66.77;;
74531;Laerm;63010;55.668;37.878;2023-01-15T13:35:06;61.75;57.29;67.88;;
74531;Laerm;63010;55.668;37.878;2023-01-15T13:37:36;63.02;58.34;73.51;;
74531;Laerm;63010;55.668;37.878;2023-01-15T13:40:32;62.97;58.84;67.91;;
74531;Laerm;63010;55.668;37.878;2023-01-15T13:43:00;62.35;57.80;70.04;;
74531;Laerm;63010;55.668;37.878;2023-01-15T13:45:39;62.38;57.25;72.37;;
74531;Laerm;63010;55.668;37.878;2023-01-15T13:48:13;62.28;58.16;66.79;;
74531;Laerm;63010;55.668;37.878;2023-01-15T13:50:51;62.86;58.11;69.00;;
74531;Laerm;63010;55.668;37.878;2023-01-15T13:53:46;63.21;58.53;70.67;;
74531;Laerm;63010;55.668;37.878;2023-01-15T13:56:31;62.46;57.21;66.85;;
74531;Laerm;63010;55.668;37.878;2023-01-15T13:58:59;63.01;58.54;68.86;;
74531;Laerm;63010;55.668;37.878;2023-01-15T14:01:33;63.21;58.19;71.79;;
74531;Laerm;63010;55.668;37.878;2023-01-15T14:06:45;62.35;57.78;76.23;;
74531;Laerm;63010;55.668;37.878;2023-01-15T14:09:13;62.62;57.72;69.31;;
74531;Laerm;63010;55.668;37.878;2023-01-15T14:17:42;62.00;57.37;66.82;;
74531;Laerm;63010;55.668;37.878;2023-01-15T14:26:32;62.32;57.82;66.67;;
74531;Laerm;63010;55.668;37.878;2023-01-15T14:34:22;62.33;57.90;66.42;;
74531;Laerm;63010;55.668;37.878;2023-01-15T14:37:01;63.00;58.55;75.97;;
74531;Laerm;63010;55.668;37.878;2023-01-15T14:39:50;62.10;58.18;66.92;;
74531;Laerm;63010;55.668;37.878;2023-01-15T14:52:55;61.92;58.59;68.13;;
74531;Laerm;63010;55.668;37.878;2023-01-15T14:55:23;61.77;58.04;68.38;;
74531;Laerm;63010;55.668;37.878;2023-01-15T14:58:02;62.81;57.51;69.21;;
74531;Laerm;63010;55.668;37.878;2023-01-15T15:00:37;62.52;57.36;69.17;;
74531;Laerm;63010;55.668;37.878;2023-01-15T15:03:16;62.09;58.29;69.84;;
74531;Laerm;63010;55.668;37.878;2023-01-15T15:05:45;60.67;57.05;64.76;;
74531;Laerm;63010;55.668;37.878;2023-01-15T15:08:15;60.57;57.10;64.28;;
74531;Laerm;63010;55.668;37.878;2023-01-15T15:10:44;61.51;57.75;67.97;;
74531;Laerm;63010;55.668;37.878;2023-01-15T15:13:29;61.08;57.96;74.54;;
74531;Laerm;63010;55.668;37.878;2023-01-15T15:16:05;61.96;57.80;82.20;;
74531;Laerm;63010;55.668;37.878;2023-01-15T15:18:38;61.44;57.47;66.09;;
74531;Laerm;63010;55.668;37.878;2023-01-15T15:21:17;61.30;57.56;69.59;;
74531;Laerm;63010;55.668;37.878;2023-01-15T15:24:12;61.56;57.52;76.86;;
74531;Laerm;63010;55.668;37.878;2023-01-15T15:26:41;62.60;57.12;68.73;;
74531;Laerm;63010;55.668;37.878;2023-01-15T15:29:16;61.28;57.32;65.49;;
74531;Laerm;63010;55.668;37.878;2023-01-15T15:31:52;62.17;57.98;71.27;;
74531;Laerm;63010;55.668;37.878;2023-01-15T15:34:29;61.06;57.23;65.21;;
74531;Laerm;63010;55.668;37.878;2023-01-15T15:37:24;61.49;57.92;68.87;;
74531;Laerm;63010;55.668;37.878;2023-01-15T15:40:16;61.01;57.12;66.10;;
74531;Laerm;63010;55.668;37.878;2023-01-15T15:43:11;62.31;57.57;78.71;;
74531;Laerm;63010;55.668;37.878;2023-01-15T15:45:54;61.74;57.82;67.57;;
74531;Laerm;63010;55.668;37.878;2023-01-15T15:48:39;62.57;59.18;71.59;;
74531;Laerm;63010;55.668;37.878;2023-01-15T15:56:35;62.33;57.85;69.67;;
74531;Laerm;63010;55.668;37.878;2023-01-15T15:59:01;61.55;57.56;66.51;;